Time;durP1;ratioP1;P1;durP2;ratioP2;P2;SDS_P1;SDS_P2;PMS_P1;PMS_P2;Temp;Humidity;BMP_temperature;BMP_pressure;BME280_temperature;BME280_humidity;BME280_pressure;Samples;Min_cycle;Max_cycle;Signal;HPM_P1;HPM_P2
2021/08/13 00:01:09;;;;;;;;;;;;;;;11.89;88.22;101196.13;5113902;28;19931;-78
2021/08/13 00:03:35;;;;;;;;;;;;;;;11.85;88.65;101193.75;5114583;28;19923;-79
2021/08/13 00:06:02;;;;;;;;;;;;;;;11.84;88.85;101194.66;5114243;28;19923;-78
2021/08/13 00:08:30;;;;;;;;;;;;;;;11.81;88.96;101197.44;5113635;28;19924;-79
2021/08/13 00:10:56;;;;;;;;;;;;;;;11.85;88.44;101191.16;5114003;28;19931;-79
2021/08/13 00:13:23;;;;;;;;;;;;;;;11.82;88.61;101188.69;5114067;28;19924;-79
2021/08/13 00:15:49;;;;;;;;;;;;;;;11.82;88.96;101184.34;5113865;28;19934;-79
2021/08/13 00:18:16;;;;;;;;;;;;;;;11.74;88.89;101176.09;5113793;28;20381;-79
2021/08/13 00:20:43;;;;;;;;;;;;;;;11.78;88.74;101181.03;5114223;28;19931;-79
2021/08/13 00:23:09;;;;;;;;;;;;;;;11.76;88.47;101175.09;5113937;28;19958;-79
2021/08/13 00:25:37;;;;;;;;;;;;;;;11.66;88.68;101166.06;5113633;28;19930;-79
2021/08/13 00:28:04;;;;;;;;;;;;;;;11.66;88.28;101175.63;5113607;28;20422;-79
2021/08/13 00:30:31;;;;;;;;;;;;;;;11.59;88.63;101174.28;5113331;28;20397;-78
2021/08/13 00:32:57;;;;;;;;;;;;;;;11.58;88.41;101170.81;5113606;28;20388;-78
2021/08/13 00:35:24;;;;;;;;;;;;;;;11.53;88.53;101173.69;5113629;28;19923;-79
2021/08/13 00:37:51;;;;;;;;;;;;;;;11.53;87.58;101175.44;5113875;28;19923;-78
2021/08/13 00:40:17;;;;;;;;;;;;;;;11.44;87.45;101176.78;5113115;28;20328;-78
2021/08/13 00:42:45;;;;;;;;;;;;;;;11.40;87.66;101172.63;5113671;28;19924;-78
2021/08/13 00:45:12;;;;;;;;;;;;;;;11.29;88.22;101175.78;5113549;28;19930;-78
2021/08/13 00:47:39;;;;;;;;;;;;;;;11.31;87.82;101173.13;5113246;28;19924;-78
2021/08/13 00:50:06;;;;;;;;;;;;;;;11.30;87.60;101177.50;5113325;28;19931;-78
2021/08/13 00:52:32;;;;;;;;;;;;;;;11.13;88.42;101177.50;5112948;28;19931;-77
2021/08/13 00:54:59;;;;;;;;;;;;;;;11.12;88.48;101173.19;5113277;28;19924;-78
2021/08/13 00:57:26;;;;;;;;;;;;;;;11.36;89.75;101168.50;5113201;28;19923;-78
2021/08/13 00:59:54;;;;;;;;;;;;;;;11.30;89.85;101167.06;5113389;28;19931;-78
2021/08/13 01:02:20;;;;;;;;;;;;;;;11.26;88.97;101160.31;5113169;28;19927;-78
2021/08/13 01:04:47;;;;;;;;;;;;;;;11.25;89.88;101168.19;5113660;28;19924;-78
2021/08/13 01:07:14;;;;;;;;;;;;;;;11.17;90.52;101170.34;5112778;28;19924;-78
2021/08/13 01:09:41;;;;;;;;;;;;;;;11.16;90.30;101168.69;5113352;28;19935;-78
2021/08/13 01:12:21;;;;;;;;;;;;;;;11.11;91.05;101168.91;5113479;28;20309;-78
2021/08/13 01:14:54;;;;;;;;;;;;;;;11.21;90.41;101164.09;5113330;28;19931;-78
2021/08/13 01:17:22;;;;;;;;;;;;;;;11.24;90.32;101158.72;5112747;28;19928;-78
2021/08/13 01:20:01;;;;;;;;;;;;;;;11.20;89.63;101158.03;5113149;28;19947;-78
2021/08/13 01:22:30;;;;;;;;;;;;;;;11.19;89.61;101158.09;5112698;28;19931;-79
2021/08/13 01:24:58;;;;;;;;;;;;;;;11.19;89.69;101156.34;5112656;28;19924;-79
2021/08/13 01:27:27;;;;;;;;;;;;;;;11.23;90.06;101167.47;5112520;28;20397;-79
2021/08/13 01:29:58;;;;;;;;;;;;;;;11.18;89.48;101159.88;5113482;28;19945;-78
2021/08/13 01:32:33;;;;;;;;;;;;;;;11.20;88.73;101154.56;5113028;28;19931;-78
2021/08/13 01:35:01;;;;;;;;;;;;;;;11.11;88.44;101161.09;5113509;28;19924;-78
2021/08/13 01:37:29;;;;;;;;;;;;;;;11.08;88.43;101156.91;5112622;28;19924;-79
2021/08/13 01:39:59;;;;;;;;;;;;;;;11.00;89.39;101156.44;5113175;28;19939;-79
2021/08/13 01:42:25;;;;;;;;;;;;;;;11.02;89.09;101156.34;5112881;28;19967;-78
2021/08/13 01:44:53;;;;;;;;;;;;;;;11.03;89.29;101158.88;5112968;28;19924;-78
2021/08/13 01:47:19;;;;;;;;;;;;;;;11.05;89.10;101154.44;5115051;28;19924;-78
2021/08/13 01:49:47;;;;;;;;;;;;;;;11.12;88.49;101149.75;5112990;28;19924;-78
2021/08/13 01:52:14;;;;;;;;;;;;;;;11.28;88.22;101149.84;5112354;28;20295;-78
2021/08/13 01:54:41;;;;;;;;;;;;;;;11.34;87.41;101152.94;5113024;28;19927;-78
2021/08/13 01:57:08;;;;;;;;;;;;;;;11.34;87.37;101145.13;5112647;28;20294;-78
2021/08/13 01:59:35;;;;;;;;;;;;;;;11.40;86.69;101143.13;5112993;28;19924;-79
2021/08/13 02:02:02;;;;;;;;;;;;;;;11.49;86.39;101146.09;5113792;28;19927;-78
2021/08/13 02:04:29;;;;;;;;;;;;;;;11.43;87.63;101149.03;5117346;28;20083;-78
2021/08/13 02:06:57;;;;;;;;;;;;;;;11.43;88.53;101151.66;5116761;28;19936;-79
2021/08/13 02:09:24;;;;;;;;;;;;;;;11.54;88.40;101149.31;5116007;28;19931;-79
2021/08/13 02:11:53;;;;;;;;;;;;;;;11.74;87.58;101152.63;5116375;28;19928;-79
2021/08/13 02:14:20;;;;;;;;;;;;;;;11.73;88.47;101156.16;5116310;28;19931;-79
2021/08/13 02:16:49;;;;;;;;;;;;;;;11.73;88.65;101156.16;5116567;28;19947;-79
2021/08/13 02:19:21;;;;;;;;;;;;;;;11.78;88.81;101154.97;5116250;28;19931;-79
2021/08/13 02:21:49;;;;;;;;;;;;;;;12.02;88.78;101157.19;5116282;28;20305;-79
2021/08/13 02:24:18;;;;;;;;;;;;;;;11.97;88.35;101154.00;5116018;28;20305;-79
2021/08/13 02:26:45;;;;;;;;;;;;;;;12.14;88.92;101153.94;5116003;28;20329;-79
2021/08/13 02:29:11;;;;;;;;;;;;;;;12.12;89.01;101147.94;5115596;28;19928;-79
2021/08/13 02:31:38;;;;;;;;;;;;;;;12.31;88.82;101144.34;5116007;28;19928;-79
2021/08/13 02:34:04;;;;;;;;;;;;;;;12.37;88.13;101146.59;5116225;28;19949;-79
2021/08/13 02:36:35;;;;;;;;;;;;;;;12.29;89.08;101133.97;5115678;28;19928;-79
2021/08/13 02:39:04;;;;;;;;;;;;;;;12.33;89.18;101130.28;5116009;28;19924;-79
2021/08/13 02:41:33;;;;;;;;;;;;;;;12.40;89.45;101133.38;5115787;28;19924;-79
2021/08/13 02:44:02;;;;;;;;;;;;;;;12.54;89.06;101122.16;5116226;28;19924;-79
2021/08/13 02:46:31;;;;;;;;;;;;;;;12.55;89.07;101119.44;5115565;28;19928;-79
2021/08/13 02:48:59;;;;;;;;;;;;;;;12.85;88.51;101126.44;5115588;28;20259;-79
2021/08/13 02:51:28;;;;;;;;;;;;;;;12.78;88.95;101112.91;5115717;28;20383;-79
2021/08/13 02:53:55;;;;;;;;;;;;;;;12.93;88.41;101119.00;5115453;28;19923;-79
2021/08/13 02:56:25;;;;;;;;;;;;;;;12.85;88.76;101116.84;5115574;28;20337;-79
2021/08/13 02:58:55;;;;;;;;;;;;;;;12.75;89.07;101123.53;5115497;28;19934;-79
2021/08/13 03:01:24;;;;;;;;;;;;;;;12.75;89.80;101120.91;5115450;28;19936;-78
2021/08/13 03:03:52;;;;;;;;;;;;;;;12.92;88.94;101119.06;5115368;28;20386;-78
2021/08/13 03:06:19;;;;;;;;;;;;;;;13.00;88.84;101117.72;5115219;28;19924;-79
2021/08/13 03:08:47;;;;;;;;;;;;;;;13.21;87.90;101120.81;5115174;28;20014;-78
2021/08/13 03:11:15;;;;;;;;;;;;;;;13.22;87.98;101119.03;5114884;28;20389;-78
2021/08/13 03:13:42;;;;;;;;;;;;;;;13.24;88.12;101112.78;5115095;28;20306;-79
2021/08/13 03:16:11;;;;;;;;;;;;;;;13.31;88.25;101117.66;5114778;28;19930;-78
2021/08/13 03:18:39;;;;;;;;;;;;;;;13.25;88.91;101111.81;5115094;28;20242;-79
2021/08/13 03:21:06;;;;;;;;;;;;;;;13.25;89.23;101113.59;5115361;28;19927;-79
2021/08/13 03:23:32;;;;;;;;;;;;;;;13.46;89.56;101111.47;5114492;28;20370;-79
2021/08/13 03:25:59;;;;;;;;;;;;;;;13.48;89.84;101117.47;5115121;28;20284;-79
2021/08/13 03:28:26;;;;;;;;;;;;;;;13.39;90.39;101116.25;5114895;28;19923;-79
2021/08/13 03:30:52;;;;;;;;;;;;;;;13.52;89.90;101116.34;5115177;28;19923;-78
2021/08/13 03:33:20;;;;;;;;;;;;;;;13.54;90.09;101121.47;5114435;28;19930;-79
2021/08/13 03:35:47;;;;;;;;;;;;;;;13.68;89.64;101114.47;5115064;28;19931;-79
2021/08/13 03:38:14;;;;;;;;;;;;;;;13.62;89.55;101116.63;5114520;28;19931;-79
2021/08/13 03:40:41;;;;;;;;;;;;;;;13.56;90.04;101112.59;5114473;28;19931;-79
2021/08/13 03:43:07;;;;;;;;;;;;;;;13.46;91.32;101111.47;5117456;28;19924;-79
2021/08/13 03:45:34;;;;;;;;;;;;;;;13.63;90.22;101116.53;5114828;28;19930;-79
2021/08/13 03:48:01;;;;;;;;;;;;;;;13.63;90.04;101113.91;5114395;28;19923;-79
2021/08/13 03:50:29;;;;;;;;;;;;;;;13.89;88.37;101112.28;5114205;28;19931;-79
2021/08/13 03:52:55;;;;;;;;;;;;;;;13.95;87.30;101108.44;5114317;28;20310;-79
2021/08/13 03:55:22;;;;;;;;;;;;;;;14.08;86.99;101103.28;5114421;28;19924;-79
2021/08/13 03:57:48;;;;;;;;;;;;;;;14.19;86.79;101106.03;5114774;28;20284;-79
2021/08/13 04:00:15;;;;;;;;;;;;;;;14.19;86.01;101099.97;5114079;28;19923;-78
2021/08/13 04:02:42;;;;;;;;;;;;;;;14.18;85.81;101096.50;5114086;28;19942;-79
2021/08/13 04:05:09;;;;;;;;;;;;;;;14.10;86.10;101097.00;5113900;28;20302;-79
2021/08/13 04:07:37;;;;;;;;;;;;;;;14.13;85.73;101091.56;5114249;28;19924;-79
2021/08/13 04:10:04;;;;;;;;;;;;;;;14.11;85.68;101096.06;5113952;28;20428;-79
2021/08/13 04:12:31;;;;;;;;;;;;;;;14.10;85.78;101089.16;5113739;28;19924;-79
2021/08/13 04:14:57;;;;;;;;;;;;;;;14.08;86.57;101095.44;5114144;28;19930;-79
2021/08/13 04:17:24;;;;;;;;;;;;;;;14.13;87.17;101090.72;5113936;28;19924;-78
2021/08/13 04:19:51;;;;;;;;;;;;;;;14.20;87.38;101093.78;5114019;28;19931;-79
2021/08/13 04:22:18;;;;;;;;;;;;;;;14.06;88.26;101082.44;5113840;28;19930;-79
2021/08/13 04:24:46;;;;;;;;;;;;;;;14.03;88.27;101087.03;5113037;28;19928;-80
2021/08/13 04:27:12;;;;;;;;;;;;;;;13.96;88.28;101076.09;5113394;28;19927;-78
2021/08/13 04:29:39;;;;;;;;;;;;;;;13.89;88.81;101077.44;5113954;28;19924;-81
2021/08/13 04:32:06;;;;;;;;;;;;;;;13.73;89.60;101070.56;5113936;28;19924;-80
2021/08/13 04:34:32;;;;;;;;;;;;;;;13.70;90.16;101068.16;5113311;28;19935;-80
2021/08/13 04:36:59;;;;;;;;;;;;;;;13.77;90.42;101067.75;5113840;28;19931;-79
2021/08/13 04:39:26;;;;;;;;;;;;;;;14.04;90.50;101059.91;5113464;28;20018;-80
2021/08/13 04:41:54;;;;;;;;;;;;;;;14.15;90.34;101052.19;5113813;28;19928;-78
2021/08/13 04:44:20;;;;;;;;;;;;;;;14.28;90.62;101052.25;5113125;28;19924;-78
2021/08/13 04:46:47;;;;;;;;;;;;;;;14.25;91.15;101047.22;5113317;28;19923;-78
2021/08/13 04:49:15;;;;;;;;;;;;;;;14.38;91.85;101046.31;5113275;28;20285;-78
2021/08/13 04:51:41;;;;;;;;;;;;;;;14.49;91.46;101044.72;5113221;28;20026;-79
2021/08/13 04:54:08;;;;;;;;;;;;;;;14.67;91.08;101046.19;5113332;28;19930;-79
2021/08/13 04:56:35;;;;;;;;;;;;;;;14.68;90.79;101041.78;5113518;28;19930;-79
2021/08/13 04:59:03;;;;;;;;;;;;;;;14.62;91.04;101047.41;5113136;28;20296;-80
2021/08/13 05:01:30;;;;;;;;;;;;;;;14.64;90.97;101048.97;5113103;28;19923;-79
2021/08/13 05:03:56;;;;;;;;;;;;;;;14.81;90.43;101046.06;5113360;28;19931;-80
2021/08/13 05:06:23;;;;;;;;;;;;;;;14.74;90.97;101041.34;5112671;28;19928;-81
2021/08/13 05:08:49;;;;;;;;;;;;;;;14.85;90.56;101040.59;5113218;28;19924;-80
2021/08/13 05:11:16;;;;;;;;;;;;;;;14.99;90.46;101037.88;5113043;28;19924;-81
2021/08/13 05:13:43;;;;;;;;;;;;;;;15.19;89.89;101044.38;5112994;28;19923;-80
2021/08/13 05:16:10;;;;;;;;;;;;;;;15.40;88.86;101042.03;5112988;28;19924;-80
2021/08/13 05:18:37;;;;;;;;;;;;;;;15.51;88.33;101042.09;5113256;28;19924;-80
2021/08/13 05:21:06;;;;;;;;;;;;;;;15.57;88.36;101046.91;5112801;28;19927;-79
2021/08/13 05:23:32;;;;;;;;;;;;;;;15.64;87.73;101040.28;5112470;28;19923;-77
2021/08/13 05:25:59;;;;;;;;;;;;;;;15.71;87.72;101040.69;5113178;28;19941;-80
2021/08/13 05:28:26;;;;;;;;;;;;;;;15.78;87.21;101043.72;5112808;28;19928;-79
2021/08/13 05:30:53;;;;;;;;;;;;;;;15.97;86.78;101037.97;5112649;28;19931;-79
2021/08/13 05:33:21;;;;;;;;;;;;;;;15.73;87.40;101040.59;5112514;28;19924;-78
2021/08/13 05:35:47;;;;;;;;;;;;;;;15.71;87.64;101042.50;5112824;28;19924;-78
2021/08/13 05:38:14;;;;;;;;;;;;;;;15.92;87.18;101040.09;5116190;28;19930;-78
2021/08/13 05:40:40;;;;;;;;;;;;;;;16.13;86.51;101043.75;5116389;28;19931;-80
2021/08/13 05:43:07;;;;;;;;;;;;;;;16.32;85.48;101038.00;5115480;28;19924;-79
2021/08/13 05:45:34;;;;;;;;;;;;;;;16.29;85.76;101035.63;5115869;28;19934;-79
2021/08/13 05:48:00;;;;;;;;;;;;;;;16.22;86.11;101039.63;5115669;28;19930;-79
2021/08/13 05:50:28;;;;;;;;;;;;;;;16.21;85.60;101046.69;5115457;28;20289;-79
2021/08/13 05:52:56;;;;;;;;;;;;;;;16.26;84.04;101041.94;5115896;28;19938;-79
2021/08/13 05:55:22;;;;;;;;;;;;;;;16.27;84.17;101042.75;5115244;28;20369;-79
2021/08/13 05:57:49;;;;;;;;;;;;;;;16.13;84.81;101045.56;5116645;28;20393;-80
2021/08/13 06:00:16;;;;;;;;;;;;;;;15.93;86.04;101050.50;5116659;28;19931;-79
2021/08/13 06:02:50;;;;;;;;;;;;;;;16.45;84.08;101044.00;5116676;28;19930;-79
2021/08/13 06:05:17;;;;;;;;;;;;;;;16.26;85.37;101041.06;5116605;28;19924;-79
2021/08/13 06:07:45;;;;;;;;;;;;;;;16.43;83.51;101039.81;5116685;28;20305;-79
2021/08/13 06:10:12;;;;;;;;;;;;;;;16.49;84.00;101044.59;5116156;28;20378;-79
2021/08/13 06:12:38;;;;;;;;;;;;;;;16.29;84.24;101035.63;5116345;28;19935;-79
2021/08/13 06:15:05;;;;;;;;;;;;;;;16.07;85.07;101037.19;5116291;28;20293;-79
2021/08/13 06:17:32;;;;;;;;;;;;;;;16.18;85.41;101035.56;5116079;28;19931;-79
2021/08/13 06:19:58;;;;;;;;;;;;;;;16.18;84.80;101039.00;5116221;28;19924;-79
2021/08/13 06:22:25;;;;;;;;;;;;;;;16.58;83.94;101032.59;5116195;28;19928;-79
2021/08/13 06:24:53;;;;;;;;;;;;;;;16.78;83.46;101038.97;5115951;28;19924;-79
2021/08/13 06:27:20;;;;;;;;;;;;;;;17.04;82.23;101029.91;5115734;28;19924;-79
2021/08/13 06:29:46;;;;;;;;;;;;;;;16.74;82.89;101038.31;5115888;28;20378;-79
2021/08/13 06:32:13;;;;;;;;;;;;;;;16.59;84.71;101036.88;5116093;28;19947;-79
2021/08/13 06:34:39;;;;;;;;;;;;;;;16.72;83.26;101027.94;5116246;28;19931;-80
2021/08/13 06:37:06;;;;;;;;;;;;;;;16.64;82.75;101025.06;5115874;28;19924;-80
2021/08/13 06:39:33;;;;;;;;;;;;;;;16.58;83.43;101020.28;5115574;28;19930;-79
2021/08/13 06:42:00;;;;;;;;;;;;;;;16.46;83.87;101019.41;5115967;28;19923;-79
2021/08/13 06:44:27;;;;;;;;;;;;;;;16.40;83.53;101027.75;5115700;28;19923;-79
2021/08/13 06:46:54;;;;;;;;;;;;;;;16.17;84.35;101029.47;5115914;28;19923;-79
2021/08/13 06:49:20;;;;;;;;;;;;;;;15.98;85.16;101030.00;5114835;28;19924;-79
2021/08/13 06:51:47;;;;;;;;;;;;;;;15.87;85.25;101028.13;5115527;28;20296;-79
2021/08/13 06:54:13;;;;;;;;;;;;;;;15.94;85.63;101030.34;5115739;28;19930;-80
2021/08/13 06:56:40;;;;;;;;;;;;;;;15.89;85.81;101036.75;5115515;28;19924;-80
2021/08/13 06:59:08;;;;;;;;;;;;;;;16.34;83.74;101041.34;5115586;28;19924;-79
2021/08/13 07:01:34;;;;;;;;;;;;;;;16.64;82.84;101042.59;5115713;28;19928;-80
2021/08/13 07:04:01;;;;;;;;;;;;;;;16.50;82.93;101043.66;5115329;28;20502;-80
2021/08/13 07:06:28;;;;;;;;;;;;;;;16.79;82.60;101044.09;5115369;28;19930;-80
2021/08/13 07:08:55;;;;;;;;;;;;;;;17.04;81.23;101048.31;5115261;28;19924;-81
2021/08/13 07:11:21;;;;;;;;;;;;;;;16.83;81.65;101049.97;5114962;28;19928;-80
2021/08/13 07:13:48;;;;;;;;;;;;;;;17.14;81.43;101053.69;5115474;28;19923;-80
2021/08/13 07:16:16;;;;;;;;;;;;;;;17.55;79.42;101050.44;5115005;28;19927;-80
2021/08/13 07:18:42;;;;;;;;;;;;;;;17.91;78.37;101045.81;5115060;28;20437;-80
2021/08/13 07:21:09;;;;;;;;;;;;;;;17.57;77.85;101045.88;5115137;28;19924;-80
2021/08/13 07:23:36;;;;;;;;;;;;;;;18.14;77.24;101040.47;5114773;28;19923;-80
2021/08/13 07:26:02;;;;;;;;;;;;;;;20.39;69.04;101039.31;5114919;28;19924;-80
2021/08/13 07:28:29;;;;;;;;;;;;;;;19.94;69.71;101036.44;5115062;28;19935;-80
2021/08/13 07:30:56;;;;;;;;;;;;;;;20.72;67.49;101026.63;5115274;28;19923;-80
2021/08/13 07:33:24;;;;;;;;;;;;;;;20.41;67.34;101032.09;5114434;28;19924;-80
2021/08/13 07:35:50;;;;;;;;;;;;;;;20.09;67.73;101027.13;5114725;28;20370;-80
2021/08/13 07:38:17;;;;;;;;;;;;;;;21.06;64.53;101024.28;5115045;28;19924;-79
2021/08/13 07:40:43;;;;;;;;;;;;;;;21.30;64.50;101022.94;5114652;28;19924;-80
2021/08/13 07:43:10;;;;;;;;;;;;;;;20.55;66.82;101022.09;5114607;28;19923;-80
2021/08/13 07:45:36;;;;;;;;;;;;;;;20.29;67.83;101014.72;5114468;28;20019;-80
2021/08/13 07:48:03;;;;;;;;;;;;;;;21.64;64.16;101017.88;5114416;28;19924;-80
2021/08/13 07:50:31;;;;;;;;;;;;;;;21.51;63.84;101020.88;5114284;28;19924;-80
2021/08/13 07:52:58;;;;;;;;;;;;;;;22.36;61.25;101009.91;5114712;28;19938;-80
2021/08/13 07:55:24;;;;;;;;;;;;;;;21.47;63.25;101008.91;5114597;28;19979;-80
2021/08/13 07:57:51;;;;;;;;;;;;;;;22.35;61.38;101005.56;5114526;28;19923;-80
2021/08/13 08:00:18;;;;;;;;;;;;;;;22.57;59.99;100997.09;5113067;28;19924;-80
2021/08/13 08:02:44;;;;;;;;;;;;;;;22.73;59.96;100995.53;5114524;28;19930;-80
2021/08/13 08:05:11;;;;;;;;;;;;;;;23.96;57.85;101010.03;5113874;28;19930;-80
2021/08/13 08:07:39;;;;;;;;;;;;;;;23.14;57.90;100996.56;5114299;28;19930;-79
2021/08/13 08:10:06;;;;;;;;;;;;;;;23.62;56.29;100996.88;5114005;28;20431;-80
2021/08/13 08:12:33;;;;;;;;;;;;;;;22.91;58.10;100996.28;5113769;28;19937;-80
2021/08/13 08:14:59;;;;;;;;;;;;;;;22.06;61.55;101004.00;5113840;28;20404;-79
2021/08/13 08:17:26;;;;;;;;;;;;;;;21.79;63.95;101002.28;5113701;28;19946;-80
2021/08/13 08:19:52;;;;;;;;;;;;;;;20.95;65.60;101000.66;5113812;28;19924;-80
2021/08/13 08:22:19;;;;;;;;;;;;;;;20.97;66.40;101009.28;5113534;28;20297;-79
2021/08/13 08:24:47;;;;;;;;;;;;;;;20.01;68.16;101003.22;5113524;28;19971;-80
2021/08/13 08:27:14;;;;;;;;;;;;;;;20.53;65.74;101002.88;5113812;28;19925;-80
2021/08/13 08:29:40;;;;;;;;;;;;;;;20.23;67.08;101004.72;5113601;28;20374;-79
2021/08/13 08:32:07;;;;;;;;;;;;;;;20.62;66.95;100994.09;5113885;28;19930;-79
2021/08/13 08:34:34;;;;;;;;;;;;;;;20.31;67.13;101010.13;5113594;28;19931;-80
2021/08/13 08:37:01;;;;;;;;;;;;;;;20.55;68.12;101007.09;5113828;28;19924;-79
2021/08/13 08:39:27;;;;;;;;;;;;;;;21.27;66.31;101013.47;5113190;28;20386;-80
2021/08/13 08:41:55;;;;;;;;;;;;;;;22.83;60.06;101007.69;5113769;28;19924;-79
2021/08/13 08:44:22;;;;;;;;;;;;;;;24.38;56.34;101009.03;5113529;28;19935;-79
2021/08/13 08:46:49;;;;;;;;;;;;;;;22.78;58.61;101006.50;5113181;28;20286;-80
2021/08/13 08:49:18;;;;;;;;;;;;;;;22.88;59.98;101001.09;5113372;28;19934;-80
2021/08/13 08:51:45;;;;;;;;;;;;;;;24.53;53.28;101011.84;5113671;28;19930;-79
2021/08/13 08:54:12;;;;;;;;;;;;;;;23.97;54.62;101008.22;5112928;28;20382;-80
2021/08/13 08:56:39;;;;;;;;;;;;;;;23.08;58.09;101007.00;5113461;28;19928;-79
2021/08/13 08:59:07;;;;;;;;;;;;;;;24.50;55.58;101012.19;5113361;28;19931;-79
2021/08/13 09:01:34;;;;;;;;;;;;;;;26.03;49.09;101015.31;5113871;28;19924;-78
2021/08/13 09:04:00;;;;;;;;;;;;;;;27.45;46.44;101015.28;5113292;28;19924;-78
2021/08/13 09:06:27;;;;;;;;;;;;;;;27.89;45.91;101009.78;5113148;28;19923;-77
2021/08/13 09:08:54;;;;;;;;;;;;;;;28.07;44.48;101014.66;5112991;28;19924;-76
2021/08/13 09:11:21;;;;;;;;;;;;;;;25.06;49.94;101007.69;5112588;28;20382;-77
2021/08/13 09:14:01;;;;;;;;;;;;;;;25.51;50.57;101006.19;5112912;28;19971;-79
2021/08/13 09:16:29;;;;;;;;;;;;;;;26.68;48.17;101011.22;5112884;28;19924;-79
2021/08/13 09:18:57;;;;;;;;;;;;;;;26.39;47.24;101012.81;5112960;28;19923;-79
2021/08/13 09:21:25;;;;;;;;;;;;;;;27.25;47.38;101015.06;5112713;28;20386;-79
2021/08/13 09:23:52;;;;;;;;;;;;;;;28.72;42.92;101010.03;5112683;28;20332;-79
2021/08/13 09:26:20;;;;;;;;;;;;;;;26.33;45.77;101013.53;5112559;28;20320;-79
2021/08/13 09:28:48;;;;;;;;;;;;;;;26.92;45.65;101000.25;5112798;28;19935;-79
2021/08/13 09:31:16;;;;;;;;;;;;;;;27.99;42.90;101004.13;5112689;28;20385;-79
2021/08/13 09:33:48;;;;;;;;;;;;;;;27.79;43.64;101009.25;5113072;28;19930;-77
2021/08/13 09:36:14;;;;;;;;;;;;;;;28.66;42.10;100997.41;5112541;28;20270;-77
2021/08/13 09:38:41;;;;;;;;;;;;;;;28.12;42.15;101000.72;5113106;28;19932;-77
2021/08/13 09:41:09;;;;;;;;;;;;;;;27.95;41.17;100998.34;5113079;28;19927;-77
2021/08/13 09:43:51;;;;;;;;;;;;;;;26.99;41.95;100991.50;5112730;28;19924;-78
2021/08/13 09:46:17;;;;;;;;;;;;;;;27.74;42.43;100995.63;5112649;28;19923;-77
2021/08/13 09:48:45;;;;;;;;;;;;;;;28.20;40.90;100997.91;5112540;28;19931;-77
2021/08/13 09:51:27;;;;;;;;;;;;;;;28.09;39.62;101001.94;5112409;28;20389;-77
2021/08/13 09:53:57;;;;;;;;;;;;;;;26.54;44.67;100991.53;5112692;28;19931;-77
2021/08/13 09:56:27;;;;;;;;;;;;;;;27.95;43.34;100992.13;5112387;28;19924;-77
2021/08/13 09:58:54;;;;;;;;;;;;;;;28.26;44.25;100990.94;5112798;28;19969;-77
2021/08/13 10:01:35;;;;;;;;;;;;;;;27.33;47.06;100985.56;5112575;28;20336;-77
2021/08/13 10:04:03;;;;;;;;;;;;;;;29.45;42.59;100988.06;5112555;28;19923;-77
2021/08/13 10:06:30;;;;;;;;;;;;;;;28.49;44.28;100980.84;5112288;28;19934;-78
2021/08/13 10:08:57;;;;;;;;;;;;;;;29.51;41.94;100985.38;5112584;28;20207;-79
2021/08/13 10:11:23;;;;;;;;;;;;;;;28.69;41.34;100972.91;5112493;28;19924;-79
2021/08/13 10:13:50;;;;;;;;;;;;;;;30.79;38.79;100960.94;5112761;28;19931;-79
2021/08/13 10:16:21;;;;;;;;;;;;;;;29.17;42.40;100974.78;5112114;28;19927;-78
2021/08/13 10:18:49;;;;;;;;;;;;;;;28.85;41.86;100967.25;5112426;28;19934;-78
2021/08/13 10:21:17;;;;;;;;;;;;;;;29.36;38.40;100968.66;5111977;28;19931;-78
2021/08/13 10:23:43;;;;;;;;;;;;;;;28.28;37.03;100962.97;5114672;28;19924;-78
2021/08/13 10:26:11;;;;;;;;;;;;;;;28.17;38.09;100958.16;5115821;28;20308;-79
2021/08/13 10:28:38;;;;;;;;;;;;;;;28.31;38.03;100959.94;5116129;28;19934;-79
2021/08/13 10:31:05;;;;;;;;;;;;;;;28.66;36.10;100950.03;5116010;28;19923;-79
2021/08/13 10:33:32;;;;;;;;;;;;;;;29.43;36.43;100961.44;5115954;28;19930;-80
2021/08/13 10:35:59;;;;;;;;;;;;;;;30.01;34.03;100960.91;5115795;28;20290;-79
2021/08/13 10:38:28;;;;;;;;;;;;;;;31.18;32.70;100951.06;5115557;28;20374;-79
2021/08/13 10:40:55;;;;;;;;;;;;;;;29.47;35.72;100956.53;5116116;28;19936;-79
2021/08/13 10:43:24;;;;;;;;;;;;;;;30.03;32.54;100955.31;5115844;28;19924;-78
2021/08/13 10:45:54;;;;;;;;;;;;;;;30.48;31.22;100958.97;5115653;28;20378;-78
2021/08/13 10:48:23;;;;;;;;;;;;;;;30.69;32.54;100957.88;5115353;28;19924;-79
2021/08/13 10:50:49;;;;;;;;;;;;;;;28.39;35.42;100953.59;5115729;28;19924;-77
2021/08/13 10:53:30;;;;;;;;;;;;;;;30.75;33.24;100956.19;5115365;28;20396;-77
2021/08/13 10:55:58;;;;;;;;;;;;;;;31.06;32.88;100946.56;5115584;28;19928;-76
2021/08/13 10:58:44;;;;;;;;;;;;;;;31.67;32.11;100949.50;5115465;28;19988;-75
2021/08/13 11:01:11;;;;;;;;;;;;;;;27.78;38.82;100957.63;5115467;28;19923;-78
2021/08/13 11:03:39;;;;;;;;;;;;;;;27.61;42.31;100955.41;5115711;28;19924;-78
2021/08/13 11:06:06;;;;;;;;;;;;;;;29.29;36.87;100954.44;5115630;28;19923;-78
2021/08/13 11:08:51;;;;;;;;;;;;;;;28.56;35.85;100954.09;5115334;28;19923;-78
2021/08/13 11:11:19;;;;;;;;;;;;;;;27.84;37.14;100952.56;5115299;28;19932;-78
2021/08/13 11:13:47;;;;;;;;;;;;;;;28.92;36.10;100956.53;5115362;28;19930;-79
2021/08/13 11:16:41;;;;;;;;;;;;;;;29.13;36.91;100965.50;5115226;28;19924;-78
2021/08/13 11:19:10;;;;;;;;;;;;;;;30.45;33.52;100958.59;5066873;28;19931;-78
2021/08/13 11:21:38;;;;;;;;;;;;;;;31.13;32.23;100964.31;5115313;28;20030;-78
2021/08/13 11:24:05;;;;;;;;;;;;;;;31.20;32.82;100961.59;5115059;28;19930;-78
2021/08/13 11:26:50;;;;;;;;;;;;;;;31.04;32.97;100965.63;5115084;28;20297;-78
2021/08/13 11:29:39;;;;;;;;;;;;;;;31.34;30.84;100959.63;5114495;28;20502;-78
2021/08/13 11:32:10;;;;;;;;;;;;;;;31.73;29.40;100955.03;5115098;28;19927;-76
2021/08/13 11:34:42;;;;;;;;;;;;;;;32.10;27.74;100956.81;5114967;28;20423;-76
2021/08/13 11:37:09;;;;;;;;;;;;;;;31.88;27.38;100956.38;5115051;28;19946;-76
2021/08/13 11:39:37;;;;;;;;;;;;;;;30.17;29.79;100949.72;5114713;28;19931;-76
2021/08/13 11:42:04;;;;;;;;;;;;;;;31.85;28.26;100951.41;5115020;28;19924;-76
2021/08/13 11:44:32;;;;;;;;;;;;;;;32.09;26.61;100947.09;5114362;28;19931;-77
2021/08/13 11:47:00;;;;;;;;;;;;;;;32.86;26.24;100941.28;5114618;28;19935;-77
2021/08/13 11:49:27;;;;;;;;;;;;;;;31.56;27.45;100939.47;5114382;28;20002;-76
2021/08/13 11:51:54;;;;;;;;;;;;;;;30.59;28.03;100931.47;5114500;28;19924;-76
2021/08/13 11:54:27;;;;;;;;;;;;;;;32.52;26.76;100931.97;5114209;28;20412;-76
2021/08/13 11:56:54;;;;;;;;;;;;;;;29.56;30.18;100930.34;5114369;28;20285;-77
2021/08/13 11:59:20;;;;;;;;;;;;;;;31.47;27.71;100930.00;5113945;28;20385;-76
2021/08/13 12:01:48;;;;;;;;;;;;;;;32.33;26.35;100926.56;5114604;28;19930;-77
2021/08/13 12:04:20;;;;;;;;;;;;;;;30.66;27.93;100926.09;5114310;28;19924;-76
2021/08/13 12:07:02;;;;;;;;;;;;;;;30.14;29.09;100917.13;5114476;28;19923;-77
2021/08/13 12:09:30;;;;;;;;;;;;;;;31.99;26.84;100919.88;5113784;28;19938;-76
2021/08/13 12:11:56;;;;;;;;;;;;;;;32.69;26.79;100916.84;5114158;28;19923;-77
2021/08/13 12:14:23;;;;;;;;;;;;;;;31.92;26.20;100927.16;5113747;28;19924;-77
2021/08/13 12:16:52;;;;;;;;;;;;;;;33.64;23.92;100927.97;5114254;28;19924;-77
2021/08/13 12:19:20;;;;;;;;;;;;;;;32.04;25.22;100916.53;5113783;28;19934;-77
2021/08/13 12:21:53;;;;;;;;;;;;;;;32.77;25.78;100918.41;5113885;28;20285;-77
2021/08/13 12:24:30;;;;;;;;;;;;;;;31.27;27.09;100918.56;5113346;28;20394;-77
2021/08/13 12:26:57;;;;;;;;;;;;;;;29.71;30.75;100931.81;5113601;28;19930;-79
2021/08/13 12:29:24;;;;;;;;;;;;;;;29.47;31.52;100932.41;5113347;28;19924;-79
2021/08/13 12:31:55;;;;;;;;;;;;;;;30.12;30.93;100929.94;5113952;28;19924;-79
2021/08/13 12:34:26;;;;;;;;;;;;;;;30.57;30.50;100925.50;5112911;28;20206;-78
2021/08/13 12:37:02;;;;;;;;;;;;;;;31.79;29.30;100930.78;5113555;28;19924;-76
2021/08/13 12:39:29;;;;;;;;;;;;;;;31.37;32.79;100926.97;5113161;28;20352;-76